createdAt,value
2022-08-12T00:00:37.295Z,1014.31
2022-08-12T00:05:36.451Z,1014.35
2022-08-12T00:10:37.557Z,1014.40
2022-08-12T00:15:39.701Z,1014.39
2022-08-12T00:20:39.838Z,1014.30
2022-08-12T00:26:00.442Z,1014.27
2022-08-12T00:30:38.952Z,1014.25
2022-08-12T00:35:40.058Z,1014.28
2022-08-12T00:40:39.602Z,1014.27
2022-08-12T00:45:41.713Z,1014.25
2022-08-12T00:50:41.814Z,1014.18
2022-08-12T00:55:40.931Z,1014.21
2022-08-12T01:00:43.049Z,1014.38
2022-08-12T01:05:42.249Z,1014.37
2022-08-12T01:10:43.371Z,1014.37
2022-08-12T01:15:49.694Z,1014.26
2022-08-12T01:20:44.817Z,1014.22
2022-08-12T01:25:56.007Z,1014.18
2022-08-12T01:30:46.933Z,1014.13
2022-08-12T01:35:46.061Z,1014.19
2022-08-12T01:40:47.197Z,1014.19
2022-08-12T01:45:47.381Z,1014.22
2022-08-12T01:50:46.500Z,1014.31
2022-08-12T01:55:48.647Z,1014.14
2022-08-12T02:00:55.259Z,1014.19
2022-08-12T02:05:49.879Z,1014.17
2022-08-12T02:10:51.927Z,1014.17
2022-08-12T02:15:50.303Z,1014.22
2022-08-12T02:20:52.403Z,1014.19
2022-08-12T02:25:51.016Z,1014.09
2022-08-12T02:30:50.165Z,1014.07
2022-08-12T02:35:51.315Z,1014.12
2022-08-12T02:40:54.436Z,1014.02
2022-08-12T02:45:53.556Z,1013.99
2022-08-12T02:50:53.706Z,1014.03
2022-08-12T02:55:55.797Z,1013.93
2022-08-12T03:00:54.974Z,1013.94
2022-08-12T03:05:56.053Z,1013.97
2022-08-12T03:10:57.171Z,1014.02
2022-08-12T03:15:59.260Z,1013.97
2022-08-12T03:20:58.371Z,1013.98
2022-08-12T03:25:59.552Z,1014.02
2022-08-12T03:31:01.633Z,1014.05
2022-08-12T03:36:00.759Z,1014.01
2022-08-12T03:41:01.941Z,1014.09
2022-08-12T03:46:04.062Z,1014.09
2022-08-12T03:51:04.209Z,1014.06
2022-08-12T03:56:04.360Z,1014.13
2022-08-12T04:01:03.539Z,1014.18
2022-08-12T04:06:04.701Z,1014.19
2022-08-12T04:11:05.884Z,1014.18
2022-08-12T04:16:07.028Z,1014.22
2022-08-12T04:21:08.163Z,1014.15
2022-08-12T04:26:09.325Z,1014.12
2022-08-12T04:31:10.487Z,1014.11
2022-08-12T04:36:11.617Z,1014.12
2022-08-12T04:41:12.775Z,1014.15
2022-08-12T04:46:13.908Z,1014.14
2022-08-12T04:51:15.134Z,1014.18
2022-08-12T04:56:16.282Z,1014.25
2022-08-12T05:01:18.462Z,1014.22
2022-08-12T05:06:26.423Z,1014.28
2022-08-12T05:11:17.513Z,1014.25
2022-08-12T05:16:19.614Z,1014.25
2022-08-12T05:21:20.549Z,1014.25
2022-08-12T05:26:19.650Z,1014.29
2022-08-12T05:31:47.551Z,1014.23
2022-08-12T05:36:21.694Z,1014.32
2022-08-12T05:41:20.897Z,1014.31
2022-08-12T05:46:22.005Z,1014.29
2022-08-12T05:51:23.106Z,1014.25
2022-08-12T05:56:24.061Z,1014.30
2022-08-12T06:02:12.127Z,1014.31
2022-08-12T06:06:27.607Z,1014.29
2022-08-12T06:11:24.860Z,1014.29
2022-08-12T06:16:25.988Z,1014.33
2022-08-12T06:21:28.125Z,1014.39
2022-08-12T06:26:28.237Z,1014.28
2022-08-12T06:31:27.527Z,1014.39
2022-08-12T06:36:33.430Z,1014.37
2022-08-12T06:41:33.822Z,1014.38
2022-08-12T06:46:28.924Z,1014.38
2022-08-12T06:51:29.188Z,1014.30
2022-08-12T06:57:01.793Z,1014.30
2022-08-12T07:01:36.230Z,1014.22
2022-08-12T07:06:31.336Z,1014.22
2022-08-12T07:11:34.445Z,1014.29
2022-08-12T07:16:33.535Z,1014.30
2022-08-12T07:21:59.468Z,1014.28
2022-08-12T07:26:34.083Z,1014.31
2022-08-12T07:31:34.398Z,1014.28
2022-08-12T07:36:34.529Z,1014.20
2022-08-12T07:41:34.638Z,1014.16
2022-08-12T07:46:34.759Z,1014.23
2022-08-12T07:51:33.879Z,1014.18
2022-08-12T07:56:36.006Z,1014.18
2022-08-12T08:01:35.227Z,1014.13
2022-08-12T08:06:36.400Z,1014.13
2022-08-12T08:11:37.516Z,1014.14
2022-08-12T08:16:47.413Z,1014.05
2022-08-12T08:21:40.515Z,1014.06
2022-08-12T08:26:39.631Z,1013.96
2022-08-12T08:31:45.360Z,1013.90
2022-08-12T08:36:40.627Z,1013.97
2022-08-12T08:42:17.226Z,1014.03
2022-08-12T08:46:41.475Z,1014.09
2022-08-12T08:51:42.656Z,1014.08
2022-08-12T08:56:43.754Z,1013.97
2022-08-12T09:01:44.969Z,1014.00
2022-08-12T09:06:53.806Z,1013.92
2022-08-12T09:16:44.580Z,1014.04
2022-08-12T09:21:54.319Z,1014.00
2022-08-12T09:26:46.278Z,1013.98
2022-08-12T09:32:07.652Z,1013.89
2022-08-12T09:36:58.033Z,1013.75
2022-08-12T09:42:34.886Z,1013.69
2022-08-12T09:46:45.836Z,1013.71
2022-08-12T09:51:45.167Z,1013.60
2022-08-12T09:57:01.799Z,1013.43
2022-08-12T10:02:42.137Z,1013.39
2022-08-12T10:06:48.760Z,1013.33
2022-08-12T10:12:11.272Z,1013.32
2022-08-12T10:16:48.506Z,1013.34
2022-08-12T10:21:56.827Z,1013.25
2022-08-12T10:26:50.576Z,1013.18
2022-08-12T10:32:21.408Z,1013.15
2022-08-12T10:36:51.892Z,1013.12
2022-08-12T10:41:56.849Z,1013.06
2022-08-12T10:46:52.074Z,1013.05
2022-08-12T10:52:32.321Z,1013.01
2022-08-12T10:56:52.434Z,1012.93
2022-08-12T11:04:25.126Z,1012.91
2022-08-12T11:07:05.629Z,1012.89
2022-08-12T11:12:36.098Z,1012.82
2022-08-12T11:17:33.763Z,1012.76
2022-08-12T11:21:58.147Z,1012.75
2022-08-12T11:26:53.519Z,1012.64
2022-08-12T11:32:02.198Z,1012.61
2022-08-12T11:36:56.591Z,1012.53
2022-08-12T11:41:55.618Z,1012.53
2022-08-12T11:46:56.777Z,1012.42
2022-08-12T11:51:58.916Z,1012.46
2022-08-12T11:56:59.627Z,1012.39
2022-08-12T12:02:01.887Z,1012.36
2022-08-12T12:07:07.127Z,1012.28
2022-08-12T12:11:58.460Z,1012.25
2022-08-12T12:16:59.605Z,1012.25
2022-08-12T12:21:59.175Z,1012.33
2022-08-12T12:27:01.504Z,1012.27
2022-08-12T12:32:10.851Z,1012.27
2022-08-12T12:37:00.976Z,1012.27
2022-08-12T12:42:43.792Z,1012.07
2022-08-12T12:47:01.756Z,1012.17
2022-08-12T12:52:19.835Z,1012.00
2022-08-12T12:57:04.044Z,1011.97
2022-08-12T13:02:06.195Z,1012.12
2022-08-12T13:07:03.389Z,1011.96
2022-08-12T13:12:04.052Z,1011.88
2022-08-12T13:17:03.467Z,1011.86
2022-08-12T13:22:03.246Z,1011.83
2022-08-12T13:27:05.346Z,1011.75
2022-08-12T13:32:19.478Z,1011.78
2022-08-12T13:37:09.986Z,1011.81
2022-08-12T13:42:07.257Z,1011.80
2022-08-12T13:47:19.537Z,1011.81
2022-08-12T13:52:08.988Z,1011.72
2022-08-12T13:57:11.057Z,1011.71
2022-08-12T14:02:09.060Z,1011.67
2022-08-12T14:07:09.232Z,1011.72
2022-08-12T14:12:09.330Z,1011.69
2022-08-12T14:17:10.843Z,1011.70
2022-08-12T14:22:10.038Z,1011.61
2022-08-12T14:27:11.677Z,1011.52
2022-08-12T14:32:11.856Z,1011.54
2022-08-12T14:37:55.565Z,1011.62
2022-08-12T14:42:12.888Z,1011.54
2022-08-12T14:47:14.144Z,1011.56
2022-08-12T14:53:50.767Z,1011.73
2022-08-12T14:58:00.769Z,1011.76
2022-08-12T15:02:15.357Z,1011.86
2022-08-12T15:07:32.714Z,1011.74
2022-08-12T15:12:14.830Z,1011.86
2022-08-12T15:17:37.530Z,1011.83
2022-08-12T15:22:36.795Z,1011.90
2022-08-12T15:27:15.838Z,1011.80
2022-08-12T15:32:16.275Z,1011.77
2022-08-12T15:37:17.184Z,1011.78
2022-08-12T15:42:16.429Z,1011.81
2022-08-12T15:47:16.614Z,1011.81
2022-08-12T15:52:27.179Z,1011.75
2022-08-12T15:57:17.702Z,1011.69
2022-08-12T16:02:17.840Z,1011.74
2022-08-12T16:07:16.992Z,1011.84
2022-08-12T16:12:22.135Z,1011.88
2022-08-12T16:17:26.097Z,1011.80
2022-08-12T16:22:20.405Z,1011.77
2022-08-12T16:27:23.261Z,1011.75
2022-08-12T16:32:22.402Z,1011.71
2022-08-12T16:37:32.529Z,1011.67
2022-08-12T16:42:23.348Z,1011.66
2022-08-12T16:47:27.317Z,1011.67
2022-08-12T16:52:24.531Z,1011.67
2022-08-12T16:57:34.836Z,1011.66
2022-08-12T17:02:31.868Z,1011.71
2022-08-12T17:07:27.572Z,1011.64
2022-08-12T17:12:25.500Z,1011.63
2022-08-12T17:17:38.857Z,1011.61
2022-08-12T17:22:30.067Z,1011.70
2022-08-12T17:27:30.909Z,1011.66
2022-08-12T17:32:29.266Z,1011.64
2022-08-12T17:37:29.671Z,1011.64
2022-08-12T17:42:32.314Z,1011.67
2022-08-12T17:47:35.814Z,1011.67
2022-08-12T17:52:33.159Z,1011.74
2022-08-12T17:57:32.647Z,1011.77
2022-08-12T18:02:33.593Z,1011.78
2022-08-12T18:07:35.736Z,1011.85
2022-08-12T18:12:35.619Z,1011.79
2022-08-12T18:17:31.918Z,1011.83
2022-08-12T18:22:34.796Z,1011.89
2022-08-12T18:27:42.117Z,1011.91
2022-08-12T18:32:53.754Z,1011.87
2022-08-12T18:37:42.207Z,1011.93
2022-08-12T18:42:34.748Z,1011.94
2022-08-12T18:47:50.185Z,1011.94
2022-08-12T18:52:37.204Z,1012.01
2022-08-12T18:58:05.894Z,1011.98
2022-08-12T19:02:40.587Z,1012.02
2022-08-12T19:07:49.754Z,1011.97
2022-08-12T19:12:39.157Z,1012.08
2022-08-12T19:17:56.370Z,1012.05
2022-08-12T19:22:39.634Z,1012.09
2022-08-12T19:27:50.718Z,1012.07
2022-08-12T19:32:40.252Z,1012.11
2022-08-12T19:38:06.584Z,1012.23
2022-08-12T19:42:44.280Z,1012.25
2022-08-12T19:47:42.132Z,1012.18
2022-08-12T19:52:41.552Z,1012.19
2022-08-12T19:57:42.561Z,1012.27
2022-08-12T20:02:43.370Z,1012.21
2022-08-12T20:07:57.038Z,1012.25
2022-08-12T20:13:10.258Z,1012.19
2022-08-12T20:17:50.640Z,1012.23
2022-08-12T20:22:43.517Z,1012.27
2022-08-12T20:28:02.749Z,1012.29
2022-08-12T20:32:47.961Z,1012.20
2022-08-12T20:38:06.753Z,1012.27
2022-08-12T20:42:43.813Z,1012.37
2022-08-12T20:47:46.864Z,1012.34
2022-08-12T20:52:45.379Z,1012.42
2022-08-12T20:58:03.167Z,1012.42
2022-08-12T21:02:46.311Z,1012.50
2022-08-12T21:07:47.650Z,1012.42
2022-08-12T21:12:44.350Z,1012.47
2022-08-12T21:18:09.406Z,1012.52
2022-08-12T21:22:44.577Z,1012.55
2022-08-12T21:27:58.870Z,1012.49
2022-08-12T21:32:47.238Z,1012.53
2022-08-12T21:37:52.929Z,1012.53
2022-08-12T21:42:45.412Z,1012.52
2022-08-12T21:47:44.970Z,1012.52
2022-08-12T21:52:48.793Z,1012.52
2022-08-12T21:57:50.588Z,1012.61
2022-08-12T22:02:48.576Z,1012.66
2022-08-12T22:07:58.272Z,1012.70
2022-08-12T22:12:46.725Z,1012.72
2022-08-12T22:17:49.821Z,1012.70
2022-08-12T22:22:56.081Z,1012.69
2022-08-12T22:27:48.805Z,1012.70
2022-08-12T22:32:55.007Z,1012.67
2022-08-12T22:37:50.489Z,1012.66
2022-08-12T22:42:51.837Z,1012.63
2022-08-12T22:47:54.819Z,1012.56
2022-08-12T22:52:50.880Z,1012.54
2022-08-12T22:57:54.877Z,1012.51
2022-08-12T23:03:00.319Z,1012.47
2022-08-12T23:07:59.679Z,1012.39
2022-08-12T23:12:54.161Z,1012.36
2022-08-12T23:17:54.723Z,1012.32
2022-08-12T23:23:03.079Z,1012.26
2022-08-12T23:27:56.038Z,1012.22
2022-08-12T23:32:54.554Z,1012.23
2022-08-12T23:37:54.477Z,1012.24
2022-08-12T23:42:53.834Z,1012.29
2022-08-12T23:47:56.017Z,1012.19
2022-08-12T23:52:55.674Z,1012.24
2022-08-12T23:58:23.062Z,1012.25
